createdAt,value
2023-07-01T00:01:53.152Z,7.80
2023-07-01T00:04:22.701Z,8.20
2023-07-01T00:06:52.074Z,9.10
2023-07-01T00:09:20.772Z,8.30
2023-07-01T00:11:49.817Z,9.30
2023-07-01T00:14:19.173Z,6.40
2023-07-01T00:16:48.310Z,6.90
2023-07-01T00:19:20.319Z,8.40
2023-07-01T00:21:49.584Z,7.40
2023-07-01T00:24:18.027Z,6.90
2023-07-01T00:26:47.074Z,7.60
2023-07-01T00:29:16.116Z,6.70
2023-07-01T00:31:45.400Z,7.20
2023-07-01T00:34:14.355Z,8.40
2023-07-01T00:36:43.440Z,11.80
2023-07-01T00:39:12.475Z,7.50
2023-07-01T00:41:41.727Z,8.10
2023-07-01T00:44:10.332Z,7.90
2023-07-01T00:47:04.046Z,6.10
2023-07-01T00:49:33.731Z,6.50
2023-07-01T00:52:03.585Z,9.70
2023-07-01T00:54:32.350Z,8.30
2023-07-01T00:57:05.438Z,8.90
2023-07-01T00:59:35.115Z,7.30
2023-07-01T01:02:14.941Z,9.30
2023-07-01T01:05:03.221Z,7.20
2023-07-01T01:07:58.566Z,7.00
2023-07-01T01:10:30.950Z,7.90
2023-07-01T01:13:04.790Z,8.10
2023-07-01T01:15:33.532Z,6.10
2023-07-01T01:18:07.454Z,7.30
2023-07-01T01:20:41.013Z,7.50
2023-07-01T01:23:17.996Z,6.40
2023-07-01T01:25:54.218Z,8.10
2023-07-01T01:28:23.403Z,8.10
2023-07-01T01:30:53.054Z,10.10
2023-07-01T01:33:21.696Z,8.00
2023-07-01T01:35:50.320Z,8.90
2023-07-01T01:38:21.147Z,7.40
2023-07-01T01:40:49.816Z,8.20
2023-07-01T01:43:39.103Z,6.40
2023-07-01T01:46:36.202Z,7.40
2023-07-01T01:49:08.406Z,9.00
2023-07-01T01:51:39.435Z,8.00
2023-07-01T01:54:10.933Z,10.40
2023-07-01T01:56:41.637Z,7.60
2023-07-01T01:59:10.581Z,8.50
2023-07-01T02:01:39.941Z,7.20
2023-07-01T02:04:08.640Z,7.40
2023-07-01T02:06:37.433Z,6.70
2023-07-01T02:09:06.576Z,6.50
2023-07-01T02:11:35.187Z,6.90
2023-07-01T02:14:03.654Z,8.10
2023-07-01T02:19:06.302Z,6.50
2023-07-01T02:21:35.743Z,7.70
2023-07-01T02:24:05.167Z,7.70
2023-07-01T02:26:33.762Z,7.90
2023-07-01T02:29:02.462Z,6.30
2023-07-01T02:31:31.545Z,8.00
2023-07-01T02:34:02.460Z,7.60
2023-07-01T02:36:31.568Z,6.80
2023-07-01T02:39:00.632Z,7.20
2023-07-01T02:41:29.197Z,8.20
2023-07-01T02:43:58.793Z,8.20
2023-07-01T02:46:50.135Z,6.30
2023-07-01T02:49:19.683Z,7.00
2023-07-01T02:51:48.599Z,7.40
2023-07-01T02:54:17.176Z,5.80
2023-07-01T02:56:46.281Z,5.60
2023-07-01T02:59:14.815Z,6.50
2023-07-01T03:01:48.028Z,5.90
2023-07-01T03:04:20.980Z,7.30
2023-07-01T03:06:50.888Z,5.70
2023-07-01T03:09:19.268Z,6.40
2023-07-01T03:11:47.888Z,5.80
2023-07-01T03:14:16.683Z,4.70
2023-07-01T03:16:46.461Z,6.70
2023-07-01T03:19:15.496Z,4.70
2023-07-01T03:21:45.626Z,4.70
2023-07-01T03:24:14.747Z,6.00
2023-07-01T03:26:45.199Z,6.20
2023-07-01T03:29:14.119Z,6.00
2023-07-01T03:31:42.764Z,5.30
2023-07-01T03:34:11.468Z,6.10
2023-07-01T03:36:41.238Z,3.70
2023-07-01T03:39:10.120Z,6.00
2023-07-01T03:41:40.272Z,5.20
2023-07-01T03:44:09.226Z,5.10
2023-07-01T03:47:14.662Z,5.90
2023-07-01T03:49:43.709Z,6.90
2023-07-01T03:52:12.333Z,6.70
2023-07-01T03:54:40.714Z,4.90
2023-07-01T03:57:09.802Z,4.60
2023-07-01T03:59:38.817Z,5.80
2023-07-01T04:02:07.785Z,6.30
2023-07-01T04:04:36.353Z,5.60
2023-07-01T04:07:06.607Z,5.00
2023-07-01T04:09:35.246Z,5.30
2023-07-01T04:12:04.371Z,3.60
2023-07-01T04:14:33.101Z,3.20
2023-07-01T04:17:04.138Z,2.80
2023-07-01T04:19:32.790Z,4.10
2023-07-01T04:22:01.840Z,3.70
2023-07-01T04:24:31.840Z,5.90
2023-07-01T04:27:00.439Z,6.10
2023-07-01T04:29:30.070Z,3.90
2023-07-01T04:31:58.648Z,3.70
2023-07-01T04:34:27.554Z,4.10
2023-07-01T04:36:56.302Z,3.90
2023-07-01T04:39:25.486Z,4.00
2023-07-01T04:41:54.019Z,5.70
2023-07-01T04:44:25.497Z,3.70
2023-07-01T04:47:57.414Z,5.20
2023-07-01T04:50:26.625Z,5.60
2023-07-01T04:52:55.067Z,6.00
2023-07-01T04:55:23.543Z,4.20
2023-07-01T04:57:53.092Z,6.10
2023-07-01T05:00:22.868Z,3.70
2023-07-01T05:02:51.541Z,5.30
2023-07-01T05:05:20.633Z,3.80
2023-07-01T05:07:49.909Z,3.00
2023-07-01T05:10:19.144Z,3.60
2023-07-01T05:12:48.283Z,8.30
2023-07-01T05:15:17.299Z,4.30
2023-07-01T05:17:46.450Z,3.00
2023-07-01T05:20:39.704Z,4.10
2023-07-01T05:23:08.875Z,5.80
2023-07-01T05:25:37.875Z,4.30
2023-07-01T05:28:07.010Z,3.20
2023-07-01T05:30:36.099Z,4.60
2023-07-01T05:33:05.608Z,4.20
2023-07-01T05:35:34.937Z,2.50
2023-07-01T05:38:11.924Z,5.60
2023-07-01T05:40:41.338Z,7.60
2023-07-01T05:43:10.497Z,4.90
2023-07-01T05:45:39.073Z,5.60
2023-07-01T05:48:33.057Z,5.30
2023-07-01T05:51:02.361Z,4.80
2023-07-01T05:53:30.979Z,3.00
2023-07-01T05:55:59.542Z,4.10
2023-07-01T05:58:28.529Z,5.80
2023-07-01T06:00:57.258Z,3.90
2023-07-01T06:03:26.056Z,5.10
2023-07-01T06:05:54.903Z,5.10
2023-07-01T06:08:24.318Z,4.90
2023-07-01T06:10:54.059Z,4.90
2023-07-01T06:13:23.078Z,2.00
2023-07-01T06:15:50.412Z,4.60
2023-07-01T06:18:17.724Z,2.40
2023-07-01T06:20:46.473Z,3.00
2023-07-01T06:23:18.511Z,2.60
2023-07-01T06:25:47.550Z,5.70
2023-07-01T06:28:16.679Z,3.30
2023-07-01T06:30:45.595Z,4.80
2023-07-01T06:33:14.827Z,2.20
2023-07-01T06:35:44.636Z,3.60
2023-07-01T06:38:13.533Z,4.50
2023-07-01T06:40:42.419Z,2.60
2023-07-01T06:43:10.902Z,2.70
2023-07-01T06:45:41.384Z,3.70
2023-07-01T06:48:10.207Z,3.10
2023-07-01T06:50:39.558Z,2.40
2023-07-01T06:53:08.538Z,2.80
2023-07-01T06:55:37.107Z,4.70
2023-07-01T06:58:05.630Z,3.10
2023-07-01T07:00:34.244Z,3.90
2023-07-01T07:03:05.254Z,2.30
2023-07-01T07:05:34.508Z,2.20
2023-07-01T07:08:03.696Z,2.00
2023-07-01T07:10:32.303Z,3.70
2023-07-01T07:13:00.897Z,4.40
2023-07-01T07:15:29.518Z,2.20
2023-07-01T07:17:58.690Z,2.10
2023-07-01T07:20:27.915Z,1.40
2023-07-01T07:22:57.450Z,2.90
2023-07-01T07:25:27.076Z,2.90
2023-07-01T07:28:35.759Z,3.80
2023-07-01T07:31:06.553Z,2.70
2023-07-01T07:33:36.346Z,3.20
2023-07-01T07:36:06.285Z,4.80
2023-07-01T07:38:35.764Z,3.40
2023-07-01T07:41:31.370Z,4.20
2023-07-01T07:44:01.812Z,4.30
2023-07-01T07:47:53.435Z,3.10
2023-07-01T07:50:52.633Z,6.70
2023-07-01T07:53:25.201Z,2.50
2023-07-01T07:55:53.873Z,2.20
2023-07-01T07:58:24.076Z,6.10
2023-07-01T08:00:55.804Z,5.60
2023-07-01T08:03:25.390Z,3.30
2023-07-01T08:05:54.812Z,2.40
2023-07-01T08:08:24.771Z,3.60
2023-07-01T08:10:54.698Z,2.30
2023-07-01T08:13:24.034Z,3.40
2023-07-01T08:15:53.698Z,3.10
2023-07-01T08:18:28.948Z,3.60
2023-07-01T08:20:57.779Z,3.10
2023-07-01T08:23:27.771Z,4.60
2023-07-01T08:25:56.552Z,3.40
2023-07-01T08:28:35.500Z,3.50
2023-07-01T08:31:13.723Z,2.60
2023-07-01T08:34:13.865Z,2.60
2023-07-01T08:36:43.405Z,3.40
2023-07-01T08:39:33.233Z,3.50
2023-07-01T08:42:09.117Z,3.40
2023-07-01T08:44:42.751Z,2.90
2023-07-01T08:47:17.187Z,4.20
2023-07-01T08:49:58.140Z,5.90
2023-07-01T08:53:02.294Z,2.90
2023-07-01T08:56:12.932Z,5.10
2023-07-01T08:58:46.395Z,3.20
2023-07-01T09:04:19.648Z,5.40
2023-07-01T09:07:01.666Z,4.20
2023-07-01T09:12:58.200Z,5.80
2023-07-01T09:22:09.753Z,6.10
2023-07-01T09:24:40.008Z,4.70
2023-07-01T09:27:10.564Z,3.30
2023-07-01T09:29:42.075Z,3.50
2023-07-01T09:32:10.947Z,5.50
2023-07-01T09:34:57.632Z,5.70
2023-07-01T09:37:27.893Z,5.00
2023-07-01T09:39:57.828Z,4.80
2023-07-01T09:42:26.596Z,3.80
2023-07-01T09:45:21.720Z,10.50
2023-07-01T09:47:54.751Z,3.80
2023-07-01T09:50:30.537Z,4.30
2023-07-01T09:52:59.253Z,4.90
2023-07-01T09:55:29.711Z,4.20
2023-07-01T09:57:59.957Z,5.50
2023-07-01T10:00:29.407Z,3.40
2023-07-01T10:02:58.485Z,4.00
2023-07-01T10:05:27.469Z,3.40
2023-07-01T10:07:56.725Z,3.30
2023-07-01T10:10:26.696Z,4.30
2023-07-01T10:13:03.124Z,4.70
2023-07-01T10:15:35.293Z,5.30
2023-07-01T10:18:19.628Z,4.40
2023-07-01T10:20:48.633Z,5.00
2023-07-01T10:23:20.863Z,7.40
2023-07-01T10:25:49.700Z,9.00
2023-07-01T10:28:28.289Z,5.20
2023-07-01T10:30:56.891Z,4.00
2023-07-01T10:33:55.100Z,5.00
2023-07-01T10:36:24.132Z,6.80
2023-07-01T10:38:54.474Z,4.10
2023-07-01T10:41:53.763Z,5.70
2023-07-01T10:44:25.161Z,5.40
2023-07-01T10:47:16.710Z,4.20
2023-07-01T10:50:01.650Z,5.10
2023-07-01T10:52:31.173Z,5.20
2023-07-01T10:55:02.497Z,7.60
2023-07-01T10:57:31.572Z,4.40
2023-07-01T11:00:40.382Z,4.80
2023-07-01T11:03:34.470Z,4.20
2023-07-01T11:06:14.282Z,4.10
2023-07-01T11:08:50.930Z,4.30
2023-07-01T11:11:26.139Z,5.40
2023-07-01T11:14:19.963Z,4.90
2023-07-01T11:16:49.947Z,5.00
2023-07-01T11:19:18.738Z,5.70
2023-07-01T11:22:18.520Z,6.40
2023-07-01T11:24:48.152Z,3.90
2023-07-01T11:27:19.207Z,5.10
2023-07-01T11:29:49.628Z,7.90
2023-07-01T11:32:19.816Z,4.60
2023-07-01T11:34:52.235Z,4.20
2023-07-01T11:37:26.984Z,4.30
2023-07-01T11:39:56.604Z,4.30
2023-07-01T11:42:28.802Z,4.80
2023-07-01T11:44:57.597Z,5.30
2023-07-01T11:47:26.554Z,5.20
2023-07-01T11:49:55.606Z,4.90
2023-07-01T11:52:25.780Z,7.30
2023-07-01T11:54:56.803Z,5.10
2023-07-01T11:57:26.193Z,6.10
2023-07-01T12:00:00.232Z,5.00
2023-07-01T12:02:32.120Z,5.10
2023-07-01T12:05:02.961Z,5.60
2023-07-01T12:07:32.009Z,5.90
2023-07-01T12:10:22.279Z,7.50
2023-07-01T12:12:51.602Z,5.30
2023-07-01T12:15:22.917Z,5.90
2023-07-01T12:17:52.954Z,5.80
2023-07-01T12:20:22.601Z,6.50
2023-07-01T12:23:54.034Z,9.70
2023-07-01T12:26:24.046Z,7.90
2023-07-01T12:28:53.045Z,8.10
2023-07-01T12:31:22.005Z,5.70
2023-07-01T12:33:51.450Z,6.80
2023-07-01T12:36:21.612Z,8.10
2023-07-01T12:38:52.012Z,7.70
2023-07-01T12:41:22.494Z,9.10
2023-07-01T12:43:51.382Z,7.10
2023-07-01T12:46:20.762Z,7.50
2023-07-01T12:48:53.443Z,6.30
2023-07-01T12:51:22.149Z,6.80
2023-07-01T12:53:58.277Z,7.50
2023-07-01T12:56:33.353Z,6.30
2023-07-01T12:59:02.707Z,7.50
2023-07-01T13:01:32.775Z,6.60
2023-07-01T13:04:02.485Z,6.90
2023-07-01T13:06:34.835Z,8.70
2023-07-01T13:09:06.149Z,6.50
2023-07-01T13:11:40.869Z,6.90
2023-07-01T13:14:13.064Z,6.70
2023-07-01T13:16:44.154Z,7.60
2023-07-01T13:19:15.276Z,9.00
2023-07-01T13:21:48.262Z,7.50
2023-07-01T13:24:18.216Z,7.10
2023-07-01T13:26:48.679Z,6.50
2023-07-01T13:29:21.682Z,6.70
2023-07-01T13:31:51.804Z,7.20
2023-07-01T13:34:24.086Z,6.50
2023-07-01T13:36:55.050Z,7.30
2023-07-01T13:39:43.519Z,7.30
2023-07-01T13:42:12.719Z,6.30
2023-07-01T13:44:42.232Z,10.20
2023-07-01T13:47:12.102Z,6.30
2023-07-01T13:49:41.723Z,8.30
2023-07-01T13:52:10.759Z,9.50
2023-07-01T13:54:40.861Z,8.00
2023-07-01T13:57:29.245Z,7.00
2023-07-01T13:59:58.905Z,7.80
2023-07-01T14:02:29.230Z,9.50
2023-07-01T14:04:58.973Z,8.10
2023-07-01T14:07:28.601Z,7.20
2023-07-01T14:09:57.648Z,7.90
2023-07-01T14:12:27.315Z,29.40
2023-07-01T14:14:56.905Z,7.70
2023-07-01T14:17:26.164Z,8.80
2023-07-01T14:19:59.920Z,8.10
2023-07-01T14:22:36.227Z,7.60
2023-07-01T14:25:08.804Z,7.90
2023-07-01T14:27:38.187Z,7.30
2023-07-01T14:30:15.961Z,10.40
2023-07-01T14:32:45.380Z,7.40
2023-07-01T14:35:20.486Z,9.40
2023-07-01T14:37:49.725Z,9.10
2023-07-01T14:40:19.179Z,8.60
2023-07-01T14:42:49.030Z,9.20
2023-07-01T14:45:18.310Z,8.20
2023-07-01T14:47:47.597Z,7.80
2023-07-01T14:50:16.854Z,8.00
2023-07-01T14:52:46.534Z,7.80
2023-07-01T14:55:16.149Z,8.60
2023-07-01T14:57:46.020Z,8.40
2023-07-01T15:00:15.887Z,10.90
2023-07-01T15:02:45.402Z,7.60
2023-07-01T15:05:14.497Z,9.70
2023-07-01T15:07:43.580Z,10.70
2023-07-01T15:10:13.517Z,7.60
2023-07-01T15:12:42.977Z,7.90
2023-07-01T15:15:12.877Z,8.40
2023-07-01T15:17:42.017Z,7.40
2023-07-01T15:20:11.628Z,8.10
2023-07-01T15:22:40.495Z,7.60
2023-07-01T15:25:09.785Z,8.30
2023-07-01T15:27:38.875Z,10.10
2023-07-01T15:30:11.616Z,10.00
2023-07-01T15:32:41.062Z,9.30
2023-07-01T15:35:26.331Z,8.10
2023-07-01T15:37:56.591Z,9.90
2023-07-01T15:40:27.844Z,8.40
2023-07-01T15:42:57.498Z,8.10
2023-07-01T15:45:26.883Z,10.30
2023-07-01T15:47:56.384Z,7.90
2023-07-01T15:50:25.758Z,8.20
2023-07-01T15:52:55.331Z,8.90
2023-07-01T15:55:24.294Z,13.20
2023-07-01T15:57:53.860Z,9.40
2023-07-01T16:00:22.877Z,8.90
2023-07-01T16:02:51.861Z,7.80
2023-07-01T16:05:25.792Z,9.30
2023-07-01T16:08:00.424Z,7.30
2023-07-01T16:10:31.412Z,7.20
2023-07-01T16:13:06.736Z,8.90
2023-07-01T16:16:02.133Z,7.70
2023-07-01T16:18:48.952Z,8.50
2023-07-01T16:21:46.864Z,8.00
2023-07-01T16:24:54.822Z,8.20
2023-07-01T16:27:25.962Z,6.50
2023-07-01T16:30:02.172Z,7.30
2023-07-01T16:32:32.126Z,5.40
2023-07-01T16:35:06.985Z,6.00
2023-07-01T16:37:36.252Z,4.60
2023-07-01T16:40:33.531Z,6.90
2023-07-01T16:43:02.549Z,6.30
2023-07-01T16:45:38.829Z,5.40
2023-07-01T16:48:28.215Z,8.00
2023-07-01T16:51:04.280Z,7.60
2023-07-01T16:53:37.062Z,8.00
2023-07-01T16:56:14.399Z,7.00
2023-07-01T16:58:44.633Z,4.70
2023-07-01T17:01:17.913Z,7.70
2023-07-01T17:03:46.684Z,6.30
2023-07-01T17:06:38.206Z,5.80
2023-07-01T17:09:07.485Z,6.10
2023-07-01T17:11:58.081Z,5.50
2023-07-01T17:14:40.500Z,4.60
2023-07-01T17:17:34.988Z,4.80
2023-07-01T17:22:36.258Z,7.40
2023-07-01T17:25:06.402Z,7.60
2023-07-01T17:27:35.163Z,6.00
2023-07-01T17:30:05.425Z,4.30
2023-07-01T17:32:34.787Z,4.30
2023-07-01T17:35:25.120Z,3.90
2023-07-01T17:37:56.038Z,3.80
2023-07-01T17:40:25.448Z,4.40
2023-07-01T17:42:55.038Z,4.70
2023-07-01T17:45:24.619Z,5.80
2023-07-01T17:47:54.319Z,5.20
2023-07-01T17:50:23.604Z,4.50
2023-07-01T17:52:53.916Z,9.00
2023-07-01T17:55:23.718Z,5.80
2023-07-01T17:57:56.127Z,7.10
2023-07-01T18:00:28.354Z,12.20
2023-07-01T18:02:57.756Z,5.80
2023-07-01T18:05:27.248Z,8.60
2023-07-01T18:07:57.323Z,8.00
2023-07-01T18:10:27.432Z,8.20
2023-07-01T18:12:57.473Z,7.50
2023-07-01T18:15:27.013Z,8.40
2023-07-01T18:17:57.256Z,13.30
2023-07-01T18:20:29.704Z,7.70
2023-07-01T18:23:11.308Z,8.50
2023-07-01T18:25:40.914Z,5.60
2023-07-01T18:28:10.440Z,6.60
2023-07-01T18:30:40.141Z,7.80
2023-07-01T18:33:09.781Z,6.30
2023-07-01T18:35:38.756Z,7.50
2023-07-01T18:38:08.005Z,6.50
2023-07-01T18:40:38.845Z,15.30
2023-07-01T18:43:09.691Z,11.10
2023-07-01T18:45:38.682Z,9.80
2023-07-01T18:48:08.410Z,11.00
2023-07-01T18:50:37.838Z,7.70
2023-07-01T18:53:07.055Z,8.00
2023-07-01T18:55:36.567Z,7.80
2023-07-01T18:58:08.656Z,8.40
2023-07-01T19:00:44.239Z,7.20
2023-07-01T19:03:14.687Z,10.30
2023-07-01T19:05:45.203Z,8.10
2023-07-01T19:08:16.210Z,11.60
2023-07-01T19:10:47.522Z,10.70
2023-07-01T19:13:18.440Z,8.00
2023-07-01T19:15:47.768Z,11.50
2023-07-01T19:18:19.897Z,10.60
2023-07-01T19:21:17.783Z,12.90
2023-07-01T19:23:47.264Z,13.70
2023-07-01T19:26:17.033Z,11.70
2023-07-01T19:28:46.585Z,14.20
2023-07-01T19:31:17.407Z,11.10
2023-07-01T19:33:47.032Z,15.00
2023-07-01T19:36:19.062Z,14.60
2023-07-01T19:38:48.969Z,18.00
2023-07-01T19:41:19.267Z,16.50
2023-07-01T19:43:52.351Z,13.30
2023-07-01T19:46:21.789Z,14.30
2023-07-01T19:48:51.974Z,18.30
2023-07-01T19:51:21.041Z,18.10
2023-07-01T19:53:50.624Z,20.00
2023-07-01T19:56:19.621Z,19.50
2023-07-01T19:58:49.717Z,18.60
2023-07-01T20:01:19.320Z,20.80
2023-07-01T20:03:49.020Z,27.30
2023-07-01T20:06:18.386Z,19.90
2023-07-01T20:08:48.237Z,20.40
2023-07-01T20:11:17.595Z,18.20
2023-07-01T20:13:46.996Z,17.20
2023-07-01T20:16:17.269Z,12.10
2023-07-01T20:18:46.962Z,10.70
2023-07-01T20:21:17.042Z,12.50
2023-07-01T20:23:46.830Z,13.20
2023-07-01T20:26:16.485Z,12.80
2023-07-01T20:28:45.792Z,11.50
2023-07-01T20:31:15.490Z,14.20
2023-07-01T20:33:44.803Z,10.50
2023-07-01T20:36:14.714Z,9.60
2023-07-01T20:38:44.621Z,10.50
2023-07-01T20:41:14.261Z,11.70
2023-07-01T20:43:43.767Z,13.60
2023-07-01T20:46:13.632Z,9.00
2023-07-01T20:48:43.727Z,9.40
2023-07-01T20:51:13.038Z,9.00
2023-07-01T20:53:42.825Z,8.20
2023-07-01T20:56:11.805Z,8.40
2023-07-01T20:58:40.631Z,12.40
2023-07-01T21:01:09.386Z,7.20
2023-07-01T21:03:40.865Z,10.70
2023-07-01T21:06:09.802Z,7.60
2023-07-01T21:08:39.304Z,8.70
2023-07-01T21:11:08.542Z,6.40
2023-07-01T21:13:37.730Z,11.00
2023-07-01T21:16:08.079Z,10.00
2023-07-01T21:18:37.542Z,9.30
2023-07-01T21:21:06.861Z,7.90
2023-07-01T21:23:35.478Z,8.40
2023-07-01T21:26:05.455Z,8.00
2023-07-01T21:28:38.795Z,13.70
2023-07-01T21:31:07.762Z,10.90
2023-07-01T21:33:37.053Z,10.20
2023-07-01T21:36:06.243Z,8.90
2023-07-01T21:38:35.276Z,12.20
2023-07-01T21:41:04.665Z,10.30
2023-07-01T21:43:43.910Z,12.70
2023-07-01T21:46:15.677Z,11.30
2023-07-01T21:48:46.036Z,10.30
2023-07-01T21:51:14.885Z,13.50
2023-07-01T21:53:47.964Z,9.20
2023-07-01T21:56:19.776Z,13.50
2023-07-01T21:58:51.726Z,9.80
2023-07-01T22:01:32.199Z,8.60
2023-07-01T22:04:06.009Z,9.50
2023-07-01T22:06:41.294Z,9.90
2023-07-01T22:09:11.589Z,11.20
2023-07-01T22:11:40.728Z,10.30
2023-07-01T22:14:10.207Z,10.10
2023-07-01T22:16:39.656Z,10.60
2023-07-01T22:19:08.672Z,8.90
2023-07-01T22:21:46.735Z,8.10
2023-07-01T22:24:16.250Z,9.00
2023-07-01T22:26:45.516Z,10.40
2023-07-01T22:29:16.285Z,9.80
2023-07-01T22:31:46.622Z,9.20
2023-07-01T22:34:16.037Z,9.20
2023-07-01T22:36:45.304Z,7.50
2023-07-01T22:39:14.681Z,13.50
2023-07-01T22:41:43.412Z,13.20
2023-07-01T22:44:12.729Z,10.30
2023-07-01T22:46:41.602Z,8.00
2023-07-01T22:49:10.299Z,10.40
2023-07-01T22:51:39.325Z,9.00
2023-07-01T22:54:08.663Z,9.00
2023-07-01T22:56:37.863Z,8.10
2023-07-01T22:59:06.462Z,8.10
2023-07-01T23:01:35.965Z,7.30
2023-07-01T23:04:05.708Z,8.80
2023-07-01T23:06:35.382Z,10.00
2023-07-01T23:09:04.277Z,9.80
2023-07-01T23:11:33.386Z,7.90
2023-07-01T23:14:02.773Z,9.00
2023-07-01T23:16:31.605Z,13.80
2023-07-01T23:19:01.128Z,9.60
2023-07-01T23:21:45.076Z,8.40
2023-07-01T23:24:15.417Z,8.60
2023-07-01T23:26:44.194Z,8.00
2023-07-01T23:29:13.794Z,9.70
2023-07-01T23:31:43.224Z,8.40
2023-07-01T23:34:12.667Z,8.60
2023-07-01T23:36:41.627Z,8.40
2023-07-01T23:39:11.545Z,8.70
2023-07-01T23:41:43.557Z,7.80
2023-07-01T23:44:12.733Z,9.90
2023-07-01T23:46:41.623Z,7.50
2023-07-01T23:49:10.462Z,8.70
2023-07-01T23:51:39.651Z,8.60
2023-07-01T23:54:08.943Z,9.50
2023-07-01T23:56:37.916Z,7.90
2023-07-01T23:59:06.825Z,9.00
